createdAt,value
2018-12-04T00:01:07.726Z,1.87
2018-12-04T00:03:36.152Z,2.07
2018-12-04T00:06:04.568Z,2.60
2018-12-04T00:08:34.484Z,2.40
2018-12-04T00:11:03.158Z,2.50
2018-12-04T00:13:31.743Z,1.43
2018-12-04T00:16:00.158Z,3.27
2018-12-04T00:18:28.902Z,2.50
2018-12-04T00:20:57.757Z,1.43
2018-12-04T00:23:26.203Z,2.10
2018-12-04T00:25:54.644Z,2.03
2018-12-04T00:28:23.089Z,2.20
2018-12-04T00:30:51.552Z,2.20
2018-12-04T00:33:19.992Z,2.40
2018-12-04T00:35:48.424Z,2.20
2018-12-04T00:38:16.856Z,1.80
2018-12-04T00:40:46.747Z,1.80
2018-12-04T00:43:15.167Z,3.00
2018-12-04T00:45:43.688Z,2.37
2018-12-04T00:48:12.096Z,2.03
2018-12-04T00:50:40.535Z,2.33
2018-12-04T00:53:10.022Z,2.17
2018-12-04T00:55:40.745Z,3.37
2018-12-04T00:58:09.397Z,2.33
2018-12-04T01:00:37.832Z,2.43
2018-12-04T01:03:06.247Z,2.20
2018-12-04T01:05:34.684Z,3.23
2018-12-04T01:08:03.121Z,2.40
2018-12-04T01:10:31.556Z,2.53
2018-12-04T01:13:00.100Z,2.60
2018-12-04T01:15:28.600Z,3.03
2018-12-04T01:17:57.020Z,2.53
2018-12-04T01:20:25.465Z,2.77
2018-12-04T01:22:54.701Z,2.80
2018-12-04T01:25:23.360Z,2.70
2018-12-04T01:27:51.787Z,4.27
2018-12-04T01:30:20.284Z,2.67
2018-12-04T01:32:48.692Z,2.43
2018-12-04T01:35:17.952Z,2.87
2018-12-04T01:37:46.509Z,3.20
2018-12-04T01:40:14.949Z,2.10
2018-12-04T01:42:43.370Z,2.80
2018-12-04T01:45:12.515Z,3.43
2018-12-04T01:47:41.144Z,2.20
2018-12-04T01:50:09.602Z,2.27
2018-12-04T01:52:39.124Z,3.47
2018-12-04T01:55:07.850Z,2.70
2018-12-04T01:57:36.273Z,3.73
2018-12-04T02:00:05.573Z,2.90
2018-12-04T02:02:34.313Z,2.60
2018-12-04T02:05:02.727Z,4.20
2018-12-04T02:07:31.167Z,2.70
2018-12-04T02:09:59.584Z,2.53
2018-12-04T02:12:28.023Z,3.33
2018-12-04T02:14:56.437Z,3.20
2018-12-04T02:17:24.881Z,3.20
2018-12-04T02:19:53.290Z,2.50
2018-12-04T02:22:21.723Z,2.23
2018-12-04T02:24:50.144Z,2.90
2018-12-04T02:27:18.588Z,2.63
2018-12-04T02:29:47.004Z,2.20
2018-12-04T02:32:15.440Z,3.73
2018-12-04T02:34:43.849Z,2.97
2018-12-04T02:37:12.280Z,2.80
2018-12-04T02:39:40.731Z,2.73
2018-12-04T02:42:09.152Z,2.60
2018-12-04T02:44:37.815Z,3.07
2018-12-04T02:47:06.227Z,3.07
2018-12-04T02:49:34.703Z,2.50
2018-12-04T02:52:03.142Z,2.70
2018-12-04T02:54:31.584Z,2.87
2018-12-04T02:57:00.796Z,1.97
2018-12-04T02:59:29.237Z,3.30
2018-12-04T03:01:59.240Z,2.87
2018-12-04T03:04:27.685Z,2.40
2018-12-04T03:06:56.727Z,2.80
2018-12-04T03:09:26.291Z,4.23
2018-12-04T03:11:54.709Z,2.67
2018-12-04T03:14:23.140Z,2.63
2018-12-04T03:16:52.245Z,2.63
2018-12-04T03:19:21.176Z,2.97
2018-12-04T03:21:49.889Z,2.70
2018-12-04T03:24:18.326Z,2.87
2018-12-04T03:26:46.745Z,3.03
2018-12-04T03:29:15.179Z,2.47
2018-12-04T03:31:44.117Z,2.90
2018-12-04T03:34:12.562Z,3.33
2018-12-04T03:36:41.514Z,3.07
2018-12-04T03:39:10.140Z,2.60
2018-12-04T03:41:39.808Z,2.90
2018-12-04T03:44:09.095Z,2.87
2018-12-04T03:46:37.844Z,3.07
2018-12-04T03:49:06.909Z,3.13
2018-12-04T03:51:35.881Z,2.00
2018-12-04T03:54:04.370Z,2.20
2018-12-04T03:56:32.812Z,2.80
2018-12-04T03:59:01.305Z,2.37
2018-12-04T04:01:29.743Z,3.63
2018-12-04T04:03:58.229Z,3.37
2018-12-04T04:06:26.668Z,2.40
2018-12-04T04:08:55.921Z,3.63
2018-12-04T04:11:24.492Z,2.10
2018-12-04T04:13:53.828Z,2.80
2018-12-04T04:16:23.007Z,2.57
2018-12-04T04:18:52.333Z,2.73
2018-12-04T04:21:21.612Z,2.40
2018-12-04T04:23:51.646Z,3.73
2018-12-04T04:26:20.082Z,2.60
2018-12-04T04:28:49.032Z,2.90
2018-12-04T04:31:17.472Z,2.97
2018-12-04T04:33:46.217Z,2.87
2018-12-04T04:36:14.949Z,2.53
2018-12-04T04:38:43.369Z,2.70
2018-12-04T04:41:12.093Z,3.13
2018-12-04T04:43:40.893Z,2.50
2018-12-04T04:46:10.164Z,3.00
2018-12-04T04:48:38.590Z,2.67
2018-12-04T04:51:07.155Z,2.57
2018-12-04T04:53:35.573Z,2.63
2018-12-04T04:56:04.009Z,2.23
2018-12-04T04:58:34.002Z,3.40
2018-12-04T05:01:02.454Z,2.70
2018-12-04T05:03:31.712Z,2.53
2018-12-04T05:06:00.381Z,2.70
2018-12-04T05:08:29.130Z,2.70
2018-12-04T05:10:57.549Z,2.50
2018-12-04T05:13:25.996Z,2.93
2018-12-04T05:15:54.966Z,3.30
2018-12-04T05:18:23.399Z,2.77
2018-12-04T05:20:51.825Z,2.80
2018-12-04T05:23:20.332Z,2.70
2018-12-04T05:25:49.292Z,3.37
2018-12-04T05:28:18.544Z,2.87
2018-12-04T05:30:47.499Z,2.97
2018-12-04T05:33:15.948Z,3.33
2018-12-04T05:35:44.981Z,2.77
2018-12-04T05:38:13.456Z,4.40
2018-12-04T05:40:41.876Z,2.30
2018-12-04T05:43:10.748Z,3.77
2018-12-04T05:45:39.173Z,3.27
2018-12-04T05:48:07.614Z,2.87
2018-12-04T05:50:36.577Z,2.97
2018-12-04T05:53:16.298Z,2.97
2018-12-04T05:55:45.587Z,2.60
2018-12-04T05:58:14.761Z,2.87
2018-12-04T06:00:43.176Z,2.70
2018-12-04T06:03:11.611Z,2.23
2018-12-04T06:05:40.052Z,3.00
2018-12-04T06:08:08.492Z,2.47
2018-12-04T06:10:36.908Z,2.37
2018-12-04T06:13:05.347Z,2.73
2018-12-04T06:15:33.767Z,2.60
2018-12-04T06:18:02.213Z,3.80
2018-12-04T06:20:30.623Z,2.93
2018-12-04T06:22:59.228Z,2.77
2018-12-04T06:25:28.693Z,3.30
2018-12-04T06:27:57.127Z,3.00
2018-12-04T06:30:25.580Z,2.80
2018-12-04T06:32:54.107Z,3.07
2018-12-04T06:35:23.124Z,3.07
2018-12-04T06:37:51.890Z,2.97
2018-12-04T06:40:20.320Z,4.23
2018-12-04T06:42:48.760Z,2.13
2018-12-04T06:45:17.176Z,2.67
2018-12-04T06:47:45.604Z,2.33
2018-12-04T06:50:14.020Z,3.00
2018-12-04T06:52:42.447Z,3.53
2018-12-04T06:55:10.868Z,3.17
2018-12-04T06:57:39.308Z,3.80
2018-12-04T07:00:08.251Z,2.73
2018-12-04T07:02:36.688Z,2.80
2018-12-04T07:05:05.736Z,2.80
2018-12-04T07:07:34.168Z,2.40
2018-12-04T07:10:02.645Z,3.30
2018-12-04T07:12:31.080Z,27.07
2018-12-04T07:14:59.495Z,23.40
2018-12-04T07:17:28.377Z,13.40
2018-12-04T07:19:56.796Z,11.73
2018-12-04T07:22:25.235Z,8.07
2018-12-04T07:24:53.656Z,5.43
2018-12-04T07:27:22.084Z,3.30
2018-12-04T07:29:50.511Z,3.50
2018-12-04T07:32:18.968Z,2.87
2018-12-04T07:34:47.380Z,2.93
2018-12-04T07:37:15.840Z,3.10
2018-12-04T07:39:44.277Z,2.97
2018-12-04T07:42:12.698Z,2.73
2018-12-04T07:44:41.128Z,2.77
2018-12-04T07:47:09.550Z,3.27
2018-12-04T07:49:38.000Z,3.73
2018-12-04T07:52:06.412Z,3.30
2018-12-04T07:54:34.852Z,3.43
2018-12-04T07:57:03.375Z,4.13
2018-12-04T07:59:31.824Z,5.27
2018-12-04T08:02:00.972Z,3.23
2018-12-04T08:04:29.587Z,2.93
2018-12-04T08:06:59.248Z,2.70
2018-12-04T08:09:27.681Z,2.60
2018-12-04T08:11:56.103Z,3.30
2018-12-04T08:14:25.064Z,2.73
2018-12-04T08:16:53.989Z,2.53
2018-12-04T08:19:22.441Z,2.80
2018-12-04T08:21:51.424Z,2.67
2018-12-04T08:24:19.868Z,3.23
2018-12-04T08:26:48.303Z,2.57
2018-12-04T08:29:16.816Z,2.70
2018-12-04T08:31:45.228Z,2.97
2018-12-04T08:34:13.665Z,3.63
2018-12-04T08:36:42.077Z,3.00
2018-12-04T08:39:13.037Z,2.80
2018-12-04T08:41:40.952Z,3.10
2018-12-04T08:44:09.400Z,2.77
2018-12-04T08:46:37.816Z,2.90
2018-12-04T08:49:06.248Z,2.90
2018-12-04T08:51:34.741Z,4.17
2018-12-04T08:54:03.197Z,3.70
2018-12-04T08:56:32.037Z,2.90
2018-12-04T08:59:03.365Z,2.80
2018-12-04T09:01:31.921Z,4.40
2018-12-04T09:04:00.360Z,2.80
2018-12-04T09:06:31.270Z,9.00
2018-12-04T09:08:59.855Z,5.23
2018-12-04T09:11:29.076Z,2.70
2018-12-04T09:13:58.360Z,2.93
2018-12-04T09:16:26.785Z,3.20
2018-12-04T09:18:55.413Z,3.73
2018-12-04T09:21:24.891Z,2.47
2018-12-04T09:23:54.364Z,3.50
2018-12-04T09:26:23.361Z,2.77
2018-12-04T09:28:52.912Z,3.10
2018-12-04T09:31:24.112Z,3.03
2018-12-04T09:33:52.876Z,2.80
2018-12-04T09:36:21.300Z,3.67
2018-12-04T09:38:49.745Z,6.47
2018-12-04T09:41:19.366Z,3.33
2018-12-04T09:43:48.616Z,3.87
2018-12-04T09:46:17.356Z,3.00
2018-12-04T09:48:45.813Z,4.00
2018-12-04T09:51:14.229Z,4.73
2018-12-04T09:53:43.031Z,5.07
2018-12-04T09:56:12.232Z,6.03
2018-12-04T09:58:40.680Z,3.97
2018-12-04T10:01:09.580Z,4.73
2018-12-04T10:03:38.024Z,2.70
2018-12-04T10:06:06.587Z,3.60
2018-12-04T10:08:36.060Z,3.90
2018-12-04T10:11:04.542Z,3.03
2018-12-04T10:13:36.550Z,3.00
2018-12-04T10:16:05.049Z,3.90
2018-12-04T10:18:33.998Z,3.70
2018-12-04T10:21:02.755Z,3.70
2018-12-04T10:23:31.172Z,3.07
2018-12-04T10:25:59.604Z,3.13
2018-12-04T10:28:28.015Z,2.87
2018-12-04T10:31:01.822Z,2.07
2018-12-04T10:33:30.472Z,3.67
2018-12-04T10:35:59.137Z,2.67
2018-12-04T10:38:30.163Z,2.87
2018-12-04T10:40:59.338Z,2.67
2018-12-04T10:43:27.887Z,3.00
2018-12-04T10:45:56.780Z,2.27
2018-12-04T10:48:25.200Z,3.30
2018-12-04T10:50:54.396Z,2.87
2018-12-04T10:53:22.838Z,2.90
2018-12-04T10:55:51.279Z,3.27
2018-12-04T10:58:19.700Z,2.73
2018-12-04T11:00:53.592Z,2.67
2018-12-04T11:03:23.784Z,2.40
2018-12-04T11:05:52.861Z,3.13
2018-12-04T11:08:22.430Z,2.20
2018-12-04T11:10:51.079Z,2.13
2018-12-04T11:13:19.524Z,2.80
2018-12-04T11:15:47.956Z,3.17
2018-12-04T11:18:16.375Z,2.47
2018-12-04T11:20:44.812Z,2.47
2018-12-04T11:23:13.232Z,2.77
2018-12-04T11:25:41.676Z,2.50
2018-12-04T11:28:10.123Z,2.23
2018-12-04T11:30:38.554Z,2.80
2018-12-04T11:33:06.963Z,2.37
2018-12-04T11:35:35.401Z,3.07
2018-12-04T11:38:03.881Z,2.67
2018-12-04T11:40:32.735Z,2.27
2018-12-04T11:43:01.153Z,2.67
2018-12-04T11:45:29.597Z,4.13
2018-12-04T11:47:58.020Z,2.53
2018-12-04T11:50:26.456Z,2.30
2018-12-04T11:52:54.871Z,2.20
2018-12-04T11:55:23.354Z,2.33
2018-12-04T11:57:51.799Z,2.37
2018-12-04T12:00:21.987Z,2.87
2018-12-04T12:02:50.812Z,2.90
2018-12-04T12:05:19.245Z,3.60
2018-12-04T12:07:47.819Z,2.70
2018-12-04T12:10:16.258Z,3.17
2018-12-04T12:12:44.706Z,2.70
2018-12-04T12:15:17.938Z,4.33
2018-12-04T12:17:44.536Z,3.60
2018-12-04T12:20:12.988Z,4.27
2018-12-04T12:22:41.423Z,2.77
2018-12-04T12:25:09.864Z,2.53
2018-12-04T12:27:39.398Z,2.53
2018-12-04T12:30:08.801Z,3.07
2018-12-04T12:32:37.223Z,3.13
2018-12-04T12:35:06.291Z,2.27
2018-12-04T12:37:34.924Z,3.30
2018-12-04T12:40:12.880Z,3.13
2018-12-04T12:42:41.629Z,3.37
2018-12-04T12:45:10.072Z,2.30
2018-12-04T12:47:38.944Z,3.00
2018-12-04T12:50:09.050Z,2.53
2018-12-04T12:52:37.468Z,4.03
2018-12-04T12:55:06.032Z,2.50
2018-12-04T12:57:34.563Z,2.77
2018-12-04T13:00:03.217Z,2.70
2018-12-04T13:02:31.752Z,2.50
2018-12-04T13:05:00.181Z,3.00
2018-12-04T13:07:28.618Z,3.23
2018-12-04T13:09:58.605Z,2.70
2018-12-04T13:12:27.416Z,2.70
2018-12-04T13:14:55.855Z,2.80
2018-12-04T13:17:24.402Z,2.70
2018-12-04T13:19:52.831Z,2.50
2018-12-04T13:22:21.812Z,3.20
2018-12-04T13:24:50.244Z,2.77
2018-12-04T13:27:18.711Z,2.80
2018-12-04T13:29:47.159Z,2.77
2018-12-04T13:32:15.833Z,2.80
2018-12-04T13:34:44.760Z,2.73
2018-12-04T13:37:13.213Z,3.03
2018-12-04T13:39:41.686Z,2.50
2018-12-04T13:42:10.152Z,2.40
2018-12-04T13:44:38.589Z,3.67
2018-12-04T13:47:07.220Z,2.97
2018-12-04T13:49:36.376Z,3.00
2018-12-04T13:52:05.203Z,3.53
2018-12-04T13:54:33.626Z,4.47
2018-12-04T13:57:02.092Z,4.90
2018-12-04T13:59:32.492Z,3.40
2018-12-04T14:02:00.926Z,3.77
2018-12-04T14:04:29.349Z,5.83
2018-12-04T14:06:57.810Z,3.47
2018-12-04T14:09:26.258Z,3.20
2018-12-04T14:11:54.948Z,4.37
2018-12-04T14:14:24.189Z,5.63
2018-12-04T14:21:08.836Z,2.83
2018-12-04T14:23:37.829Z,2.90
2018-12-04T14:26:06.567Z,3.10
2018-12-04T14:28:35.375Z,3.17
2018-12-04T14:31:04.018Z,3.23
2018-12-04T14:33:33.019Z,2.77
2018-12-04T14:36:02.694Z,2.67
2018-12-04T14:38:31.148Z,2.80
2018-12-04T14:41:00.642Z,3.37
2018-12-04T14:43:29.352Z,2.57
2018-12-04T14:45:58.765Z,3.30
2018-12-04T14:48:27.229Z,3.90
2018-12-04T14:50:55.883Z,2.53
2018-12-04T14:53:24.577Z,3.33
2018-12-04T14:55:53.528Z,2.83
2018-12-04T14:58:22.678Z,3.17
2018-12-04T15:00:51.338Z,2.80
2018-12-04T15:03:20.299Z,3.60
2018-12-04T15:05:49.303Z,3.13
2018-12-04T15:08:17.771Z,3.17
2018-12-04T15:10:46.784Z,3.90
2018-12-04T15:13:16.039Z,3.20
2018-12-04T15:15:44.702Z,3.20
2018-12-04T15:18:13.184Z,4.70
2018-12-04T15:20:42.274Z,4.27
2018-12-04T15:23:12.136Z,3.80
2018-12-04T15:25:40.816Z,4.17
2018-12-04T15:28:09.356Z,3.87
2018-12-04T15:30:38.332Z,3.70
2018-12-04T15:33:07.460Z,3.90
2018-12-04T15:35:36.245Z,5.43
2018-12-04T15:38:04.967Z,5.27
2018-12-04T15:40:34.547Z,4.80
2018-12-04T15:43:03.767Z,4.70
2018-12-04T15:45:33.860Z,5.00
2018-12-04T15:48:02.331Z,5.47
2018-12-04T15:50:31.289Z,4.20
2018-12-04T15:53:00.465Z,4.43
2018-12-04T15:55:29.180Z,3.07
2018-12-04T15:57:58.025Z,3.47
2018-12-04T16:00:27.328Z,3.53
2018-12-04T16:02:55.775Z,3.70
2018-12-04T16:05:24.219Z,3.67
2018-12-04T16:07:52.675Z,3.83
2018-12-04T16:10:21.120Z,3.40
2018-12-04T16:12:49.543Z,3.90
2018-12-04T16:15:17.981Z,3.47
2018-12-04T16:17:46.404Z,3.03
2018-12-04T16:20:14.846Z,2.53
2018-12-04T16:22:43.266Z,2.87
2018-12-04T16:25:11.701Z,2.70
2018-12-04T16:27:40.873Z,3.00
2018-12-04T16:30:10.977Z,2.60
2018-12-04T16:32:39.423Z,3.57
2018-12-04T16:35:07.914Z,8.20
2018-12-04T16:37:36.368Z,10.33
2018-12-04T16:40:06.324Z,11.40
2018-12-04T16:42:34.781Z,9.50
2018-12-04T16:45:03.203Z,7.53
2018-12-04T16:47:31.654Z,6.77
2018-12-04T16:50:00.081Z,5.60
2018-12-04T16:52:28.516Z,5.00
2018-12-04T16:54:56.924Z,4.30
2018-12-04T16:57:25.364Z,3.77
2018-12-04T16:59:54.052Z,4.60
2018-12-04T17:02:22.506Z,4.70
2018-12-04T17:04:50.928Z,6.90
2018-12-04T17:07:19.362Z,5.87
2018-12-04T17:09:47.783Z,5.30
2018-12-04T17:12:16.220Z,4.10
2018-12-04T17:14:44.638Z,4.00
2018-12-04T17:17:13.079Z,3.53
2018-12-04T17:19:41.501Z,3.43
2018-12-04T17:22:10.352Z,3.77
2018-12-04T17:24:39.205Z,2.90
2018-12-04T17:27:07.853Z,3.40
2018-12-04T17:29:36.275Z,3.27
2018-12-04T17:32:04.693Z,4.90
2018-12-04T17:34:33.137Z,6.50
2018-12-04T17:37:03.318Z,5.50
2018-12-04T17:39:31.780Z,5.63
2018-12-04T17:42:00.749Z,7.10
2018-12-04T17:44:29.205Z,10.37
2018-12-04T17:46:57.625Z,7.03
2018-12-04T17:49:26.248Z,5.73
2018-12-04T17:51:54.661Z,4.70
2018-12-04T17:54:23.102Z,9.43
2018-12-04T17:56:51.825Z,10.27
2018-12-04T17:59:20.271Z,12.17
2018-12-04T18:01:48.757Z,18.87
2018-12-04T18:04:17.213Z,32.63
2018-12-04T18:06:45.639Z,35.67
2018-12-04T18:09:14.158Z,24.97
2018-12-04T18:11:42.812Z,19.87
2018-12-04T18:14:11.262Z,17.77
2018-12-04T18:16:39.685Z,16.43
2018-12-04T18:19:08.217Z,12.73
2018-12-04T18:21:36.687Z,11.17
2018-12-04T18:24:05.142Z,15.03
2018-12-04T18:26:33.567Z,10.17
2018-12-04T18:29:02.477Z,7.20
2018-12-04T18:31:32.033Z,5.23
2018-12-04T18:34:01.487Z,4.93
2018-12-04T18:36:30.344Z,4.70
2018-12-04T18:38:58.844Z,4.23
2018-12-04T18:41:32.116Z,4.00
2018-12-04T18:43:58.364Z,4.83
2018-12-04T18:46:27.350Z,4.77
2018-12-04T18:48:57.475Z,5.43
2018-12-04T18:51:25.893Z,4.33
2018-12-04T18:53:54.358Z,5.00
2018-12-04T18:56:22.837Z,4.77
2018-12-04T18:58:51.718Z,4.60
2018-12-04T19:01:20.141Z,5.17
2018-12-04T19:03:48.969Z,4.20
2018-12-04T19:06:18.108Z,4.97
2018-12-04T19:08:48.007Z,5.00
2018-12-04T19:11:17.505Z,5.97
2018-12-04T19:13:49.134Z,5.43
2018-12-04T19:16:18.390Z,4.77
2018-12-04T19:18:47.237Z,4.63
2018-12-04T19:21:17.060Z,4.40
2018-12-04T19:23:45.506Z,4.30
2018-12-04T19:26:13.934Z,4.90
2018-12-04T19:28:42.445Z,4.70
2018-12-04T19:31:10.951Z,4.93
2018-12-04T19:33:39.538Z,5.50
2018-12-04T19:36:08.769Z,6.37
2018-12-04T19:38:38.405Z,5.10
2018-12-04T19:41:06.955Z,6.20
2018-12-04T19:43:35.394Z,4.97
2018-12-04T19:46:04.050Z,4.70
2018-12-04T19:48:32.484Z,5.20
2018-12-04T19:51:00.934Z,6.20
2018-12-04T19:53:29.614Z,6.07
2018-12-04T19:55:58.312Z,6.70
2018-12-04T19:58:26.780Z,7.23
2018-12-04T20:00:55.448Z,7.17
2018-12-04T20:03:23.892Z,6.90
2018-12-04T20:05:52.403Z,6.63
2018-12-04T20:08:20.832Z,6.43
2018-12-04T20:10:50.020Z,6.73
2018-12-04T20:13:18.449Z,7.20
2018-12-04T20:15:47.325Z,7.60
2018-12-04T20:18:16.474Z,7.73
2018-12-04T20:20:44.920Z,7.07
2018-12-04T20:23:14.286Z,7.90
2018-12-04T20:25:43.153Z,7.30
2018-12-04T20:28:11.894Z,8.10
2018-12-04T20:30:40.647Z,8.90
2018-12-04T20:33:09.076Z,9.67
2018-12-04T20:35:38.616Z,10.97
2018-12-04T20:38:07.048Z,11.30
2018-12-04T20:40:35.496Z,11.27
2018-12-04T20:43:04.137Z,10.27
2018-12-04T20:45:32.903Z,12.83
2018-12-04T20:48:03.042Z,13.97
2018-12-04T20:50:32.316Z,14.27
2018-12-04T20:53:02.419Z,12.57
2018-12-04T20:55:30.985Z,11.00
2018-12-04T20:58:00.657Z,12.13
2018-12-04T21:00:29.210Z,11.60
2018-12-04T21:02:57.945Z,11.00
2018-12-04T21:05:27.120Z,11.27
2018-12-04T21:07:55.549Z,10.57
2018-12-04T21:10:24.553Z,12.50
2018-12-04T21:12:52.984Z,13.50
2018-12-04T21:15:22.170Z,12.80
2018-12-04T21:17:51.533Z,12.90
2018-12-04T21:20:19.984Z,12.40
2018-12-04T21:22:48.416Z,13.57
2018-12-04T21:25:17.680Z,13.80
2018-12-04T21:27:51.604Z,14.47
2018-12-04T21:30:25.414Z,13.90
2018-12-04T21:33:00.091Z,13.10
2018-12-04T21:35:33.923Z,13.23
2018-12-04T21:38:07.958Z,14.00
2018-12-04T21:40:41.868Z,13.90
2018-12-04T21:43:15.801Z,13.33
2018-12-04T21:45:49.975Z,13.53
2018-12-04T21:48:18.756Z,14.13
2018-12-04T21:50:47.362Z,11.67
2018-12-04T21:53:16.002Z,12.27
2018-12-04T21:55:44.453Z,12.13
2018-12-04T21:58:12.892Z,13.20
2018-12-04T22:00:42.332Z,12.43
2018-12-04T22:03:10.774Z,13.13
2018-12-04T22:05:39.244Z,12.57
2018-12-04T22:08:08.530Z,13.10
2018-12-04T22:10:37.133Z,14.80
2018-12-04T22:13:05.750Z,14.17
2018-12-04T22:15:34.402Z,13.50
2018-12-04T22:18:02.852Z,14.40
2018-12-04T22:20:31.281Z,15.37
2018-12-04T22:23:00.204Z,17.13
2018-12-04T22:25:28.637Z,18.30
2018-12-04T22:27:57.154Z,16.03
2018-12-04T22:30:25.652Z,14.77
2018-12-04T22:32:54.319Z,14.57
2018-12-04T22:35:23.569Z,15.50
2018-12-04T22:37:52.021Z,13.97
2018-12-04T22:40:20.520Z,14.03
2018-12-04T22:42:48.979Z,15.07
2018-12-04T22:45:23.009Z,16.37
2018-12-04T22:47:52.328Z,15.57
2018-12-04T22:50:20.880Z,14.53
2018-12-04T22:52:49.357Z,14.83
2018-12-04T22:55:17.783Z,15.70
2018-12-04T22:57:46.233Z,14.50
2018-12-04T23:00:19.381Z,14.47
2018-12-04T23:02:48.645Z,13.10
2018-12-04T23:05:17.083Z,14.77
2018-12-04T23:07:45.828Z,16.35
2018-12-04T23:10:14.263Z,14.27
2018-12-04T23:12:42.718Z,13.30
2018-12-04T23:15:11.149Z,18.37
2018-12-04T23:17:40.238Z,15.80
2018-12-04T23:20:09.363Z,14.10
2018-12-04T23:22:38.520Z,14.20
2018-12-04T23:25:07.096Z,13.27
2018-12-04T23:27:38.644Z,13.83
2018-12-04T23:30:07.605Z,12.63
2018-12-04T23:32:36.053Z,12.70
2018-12-04T23:35:05.452Z,12.20
2018-12-04T23:37:34.629Z,12.13
2018-12-04T23:40:03.373Z,13.13
2018-12-04T23:42:31.833Z,11.70
2018-12-04T23:45:00.902Z,13.03
2018-12-04T23:47:29.861Z,12.97
2018-12-04T23:49:59.090Z,12.93
2018-12-04T23:52:28.825Z,12.77
2018-12-04T23:54:58.110Z,13.20
2018-12-04T23:57:26.534Z,12.10
2018-12-04T23:59:54.973Z,13.67
